KJAX

Jacksonville International Airport

Jacksonville, Florida, USA
METAR KJAX 172056Z 25010KT 10SM BKN050 26/16 A3012 RMK AO2 SLP199 T02610161 56008
Observed Flight Rules
Feb-17 @ 20:56 UTC (34 minutes ago) Visual Flight Rules
Wind Visibility Clouds
250° at 10 knots 10 miles
  • Broken at 5,000' AGL
Temperatures Readings
Current 26°C / 79°F
Dewpoint 16°C / 61°F
Humidity 54%
Altimeter 30.12" Hg
Pressure 1019.9 hPa
Elevation 10
METAR KJAX 172056Z 25010KT 10SM BKN050 26/16 A3012 RMK AO2 SLP199 T02610161 56008
Observed Flight Rules
Feb-17 @ 20:56 UTC
(34 minutes ago)
VFR
Wind Visibility
250° at 10 knots 10 miles
Clouds
  • Broken at 5,000' AGL
Temperature Dewpoint
26°C / 79°F 16°C / 61°F
Humidity Altimeter Pressure
54% 30.12" Hg 1019.9 hPa